Cruise inventory

RV Johan Hjort JH03/01

Cruise plan

Cruise Info. 
Ship name (ship code)RV Johan Hjort (58J3)
Cruise identifierJH03/01
Cruise period2001-03-02 — 2001-03-18
StatusCompleted
Port of departureTromsø, Norway
Port of returnTromsø, Norway
PurposeResearch
ObjectivesMAIA Project by SINTEF, Norway.
Chief scientistRandi B Ingvaldsen (Institute of Marine Research, Norway)
Ocean/sea areas 
GeneralBarents Sea
Norwegian Sea
SpecificIncl. 4 standard sections
Measurements 
Physical oceanography 
Water bottle stationsQuantity: number of stations = 63
CTD stationsQuantity: number of stations = 74
Description: Seabird CTD
Current metersQuantity: 13
Description: 6 recovered (MAIA moorings 1,,2,2b,3,4,5 w. total of 12cms) & 7 deployed (Maia moorings 1,2,1b,3,3b,4,5 with a total of 14 cms)
Chemical oceanography 
PhosphateQuantity: 63
Total - PQuantity: 63
NitrateQuantity: 63
NitriteQuantity: 63
Total - NQuantity: 63
SilicateQuantity: 63
Biology and fisheries 
Phytoplankton pigs (eg chlorophyll, fluorescence)Quantity: 63
ZooplanktonQuantity: 67
Description: 61: WP-II & 6: Mocness
Data held at BODC 
Series/Profiles 
56  CTD/STD cast
Electrical conductivity of the water column
Vertical spatial coordinates
Salinity of the water column
Temperature of the water column
Electrical conductivity of the water column
Vertical spatial coordinates
Salinity of the water column
Temperature of the water column

BODC idDate/TimeLocationDoc.
5879852001-03-02 23:45 70° 30' 1" N  20° 0' 24" E  View metadata report for BODC series reference number 587985
5879972001-03-03 01:08 70° 40' 0" N  19° 57' 46" E  View metadata report for BODC series reference number 587997
5880002001-03-03 02:13 70° 50' 1" N  19° 55' 53" E  View metadata report for BODC series reference number 588000
5880122001-03-03 03:19 70° 59' 57" N  19° 54' 15" E  View metadata report for BODC series reference number 588012
5880242001-03-03 04:46 71° 9' 57" N  19° 52' 4" E  View metadata report for BODC series reference number 588024
5880362001-03-03 05:56 71° 19' 55" N  19° 50' 20" E  View metadata report for BODC series reference number 588036
5880482001-03-03 07:12 71° 29' 58" N  19° 48' 35" E  View metadata report for BODC series reference number 588048
5880612001-03-03 11:36 71° 44' 57" N  19° 44' 5" E  View metadata report for BODC series reference number 588061
5880732001-03-03 13:21 71° 59' 59" N  19° 40' 55" E  View metadata report for BODC series reference number 588073
5880852001-03-03 16:33 72° 0' 33" N  19° 41' 50" E  View metadata report for BODC series reference number 588085
5880972001-03-03 18:19 72° 15' 1" N  19° 36' 51" E  View metadata report for BODC series reference number 588097
5881042001-03-03 20:16 72° 30' 2" N  19° 33' 58" E  View metadata report for BODC series reference number 588104
5881162001-03-03 22:17 72° 44' 57" N  19° 30' 55" E  View metadata report for BODC series reference number 588116
5881282001-03-04 00:26 72° 59' 57" N  19° 27' 52" E  View metadata report for BODC series reference number 588128
5881412001-03-05 21:07 73° 14' 55" N  19° 24' 20" E  View metadata report for BODC series reference number 588141
5881532001-03-05 23:28 73° 29' 53" N  19° 20' 17" E  View metadata report for BODC series reference number 588153
5881652001-03-06 01:37 73° 40' 1" N  19° 18' 2" E  View metadata report for BODC series reference number 588165
5881772001-03-06 03:01 73° 50' 2" N  19° 15' 59" E  View metadata report for BODC series reference number 588177
5881892001-03-06 04:15 74° 0' 2" N  19° 12' 44" E  View metadata report for BODC series reference number 588189
5881902001-03-06 05:49 74° 10' 3" N  19° 10' 54" E  View metadata report for BODC series reference number 588190
5882082001-03-12 16:03 70° 24' 0" N  8° 12' 13" E  View metadata report for BODC series reference number 588208
5882212001-03-12 19:36 70° 9' 58" N  8° 52' 59" E  View metadata report for BODC series reference number 588221
5882332001-03-12 23:14 69° 56' 58" N  9° 34' 48" E  View metadata report for BODC series reference number 588233
5882452001-03-13 04:59 69° 42' 1" N  10° 16' 4" E  View metadata report for BODC series reference number 588245
5882572001-03-13 11:05 69° 29' 2" N  10° 56' 57" E  View metadata report for BODC series reference number 588257
5882692001-03-13 17:00 69° 14' 0" N  11° 36' 40" E  View metadata report for BODC series reference number 588269
5882702001-03-13 20:10 69° 7' 55" N  11° 56' 39" E  View metadata report for BODC series reference number 588270
5882822001-03-13 22:54 69° 1' 59" N  12° 16' 40" E  View metadata report for BODC series reference number 588282
5882942001-03-14 05:09 68° 54' 1" N  12° 37' 50" E  View metadata report for BODC series reference number 588294
5883012001-03-14 06:53 68° 51' 4" N  12° 48' 10" E  View metadata report for BODC series reference number 588301
5883132001-03-14 08:11 68° 47' 2" N  12° 58' 12" E  View metadata report for BODC series reference number 588313
5883252001-03-14 08:59 68° 43' 58" N  13° 10' 28" E  View metadata report for BODC series reference number 588325
5883372001-03-14 10:17 68° 37' 2" N  13° 29' 2" E  View metadata report for BODC series reference number 588337
5883492001-03-14 10:46 68° 34' 48" N  13° 35' 9" E  View metadata report for BODC series reference number 588349
5883502001-03-14 11:27 68° 32' 42" N  13° 40' 56" E  View metadata report for BODC series reference number 588350
5883622001-03-14 11:54 68° 30' 45" N  13° 46' 55" E  View metadata report for BODC series reference number 588362
5883742001-03-14 12:59 68° 28' 40" N  13° 52' 36" E  View metadata report for BODC series reference number 588374
5884052001-03-16 03:21 64° 40' 5" N  0° 0' 6" E  View metadata report for BODC series reference number 588405
5884172001-03-16 09:43 64° 22' 11" N  0° 43' 40" E  View metadata report for BODC series reference number 588417
5884292001-03-16 13:31 64° 8' 4" N  1° 15' 47" E  View metadata report for BODC series reference number 588429
5884302001-03-16 18:45 63° 53' 57" N  1° 47' 53" E  View metadata report for BODC series reference number 588430
5884422001-03-16 22:07 63° 39' 45" N  2° 20' 22" E  View metadata report for BODC series reference number 588442
5884542001-03-17 03:00 63° 25' 39" N  2° 51' 57" E  View metadata report for BODC series reference number 588454
5884662001-03-17 04:55 63° 18' 34" N  3° 7' 50" E  View metadata report for BODC series reference number 588466
5884782001-03-17 08:05 63° 11' 33" N  3° 23' 50" E  View metadata report for BODC series reference number 588478
5884912001-03-17 09:59 63° 4' 23" N  3° 39' 27" E  View metadata report for BODC series reference number 588491
5885092001-03-17 12:32 62° 57' 22" N  3° 55' 0" E  View metadata report for BODC series reference number 588509
5885102001-03-17 14:32 62° 53' 48" N  4° 2' 51" E  View metadata report for BODC series reference number 588510
5885222001-03-17 15:25 62° 50' 22" N  4° 10' 40" E  View metadata report for BODC series reference number 588522
5885342001-03-17 16:53 62° 46' 47" N  4° 18' 23" E  View metadata report for BODC series reference number 588534
5885462001-03-17 17:42 62° 43' 12" N  4° 26' 4" E  View metadata report for BODC series reference number 588546
5885582001-03-17 19:41 62° 36' 7" N  4° 41' 25" E  View metadata report for BODC series reference number 588558
5885712001-03-17 21:04 62° 29' 8" N  4° 56' 39" E  View metadata report for BODC series reference number 588571
5885832001-03-17 22:30 62° 22' 2" N  5° 11' 50" E  View metadata report for BODC series reference number 588583
5883862001-03-14 13:36 68° 25' 50" N  14° 0' 40" E  View metadata report for BODC series reference number 588386
5883982001-03-14 14:07 68° 24' 23" N  14° 4' 39" E  View metadata report for BODC series reference number 588398